Time;durP1;ratioP1;P1;durP2;ratioP2;P2;SDS_P1;SDS_P2;PMS_P1;PMS_P2;Temp;Humidity;BMP_temperature;BMP_pressure;BME280_temperature;BME280_humidity;BME280_pressure;Samples;Min_cycle;Max_cycle;Signal;HPM_P1;HPM_P2
2022/12/19 00:01:52;;;;;;;38.77;21.23;;;;;;;-5.89;100.00;102207.50;4860669;29;20071;-78
2022/12/19 00:04:20;;;;;;;46.27;20.80;;;;;;;-5.90;100.00;102204.88;4862159;29;20048;-79
2022/12/19 00:06:49;;;;;;;49.00;21.50;;;;;;;-5.93;100.00;102199.50;4846479;29;20110;-79
2022/12/19 00:09:16;;;;;;;44.17;19.97;;;;;;;-5.80;100.00;102191.81;4860700;29;20054;-80
2022/12/19 00:11:43;;;;;;;42.87;19.37;;;;;;;-5.78;100.00;102188.59;4845263;29;20046;-81
2022/12/19 00:14:10;;;;;;;43.77;19.27;;;;;;;-5.79;100.00;102191.94;4857668;29;20124;-78
2022/12/19 00:16:37;;;;;;;48.53;18.83;;;;;;;-5.75;100.00;102175.91;4846300;29;20133;-80
2022/12/19 00:19:05;;;;;;;40.37;19.47;;;;;;;-5.81;100.00;102172.91;4862103;29;20463;-79
2022/12/19 00:21:32;;;;;;;48.27;19.77;;;;;;;-5.78;100.00;102178.28;4846160;29;20049;-79
2022/12/19 00:24:05;;;;;;;48.00;20.43;;;;;;;-5.86;100.00;102170.81;4847635;29;20042;-78
2022/12/19 00:26:47;;;;;;;41.43;19.03;;;;;;;-5.89;100.00;102166.31;4836180;29;20044;-79
2022/12/19 00:29:15;;;;;;;37.17;18.63;;;;;;;-5.88;100.00;102170.72;4860587;29;20064;-80
2022/12/19 00:31:42;;;;;;;42.23;18.50;;;;;;;-5.84;100.00;102172.69;4851253;29;20133;-80
2022/12/19 00:34:09;;;;;;;41.30;18.30;;;;;;;-5.76;100.00;102161.25;4853143;29;20046;-78
2022/12/19 00:36:35;;;;;;;41.80;19.63;;;;;;;-5.91;100.00;102146.47;4837364;29;20604;-79
2022/12/19 00:39:04;;;;;;;47.00;19.00;;;;;;;-5.86;100.00;102147.66;4862834;29;20041;-78
2022/12/19 00:41:36;;;;;;;46.30;20.23;;;;;;;-5.73;100.00;102153.72;4832075;29;20077;-79
2022/12/19 00:44:05;;;;;;;47.30;19.17;;;;;;;-5.70;100.00;102150.50;4861569;29;20042;-79
2022/12/19 00:46:36;;;;;;;42.67;20.97;;;;;;;-5.81;100.00;102154.88;4831315;29;20049;-78
2022/12/19 00:49:03;;;;;;;46.73;20.70;;;;;;;-5.74;100.00;102146.81;4857943;29;20093;-78
2022/12/19 00:51:32;;;;;;;42.63;19.23;;;;;;;-5.89;100.00;102148.31;4847340;29;20057;-79
2022/12/19 00:53:59;;;;;;;41.67;18.77;;;;;;;-5.69;100.00;102158.31;4845692;29;20082;-79
2022/12/19 00:56:30;;;;;;;50.20;19.67;;;;;;;-5.77;100.00;102148.28;4845723;29;20575;-80
2022/12/19 00:58:59;;;;;;;44.40;19.70;;;;;;;-5.72;100.00;102154.63;4842248;29;20105;-79
2022/12/19 01:01:29;;;;;;;41.67;19.10;;;;;;;-5.81;100.00;102162.59;4817065;29;20057;-80
2022/12/19 01:03:57;;;;;;;44.20;20.03;;;;;;;-5.67;100.00;102161.00;4864052;29;20095;-80
2022/12/19 01:06:44;;;;;;;41.43;19.27;;;;;;;-5.74;100.00;102140.75;4858798;29;20042;-79
2022/12/19 01:09:11;;;;;;;44.90;19.37;;;;;;;-5.74;100.00;102148.50;4843635;29;20057;-80
2022/12/19 01:14:23;;;;;;;45.70;19.80;;;;;;;-5.71;100.00;102125.56;4858981;29;20080;-80
2022/12/19 01:16:50;;;;;;;45.90;19.80;;;;;;;-5.81;100.00;102123.09;4842451;29;20046;-79
2022/12/19 01:19:16;;;;;;;46.67;19.30;;;;;;;-5.75;100.00;102123.53;4844415;29;20057;-79
2022/12/19 01:21:43;;;;;;;44.50;19.90;;;;;;;-5.74;100.00;102125.31;4844969;29;20109;-80
2022/12/19 01:24:10;;;;;;;48.70;19.83;;;;;;;-5.70;100.00;102117.94;4845950;29;20046;-80
2022/12/19 01:26:37;;;;;;;43.60;20.47;;;;;;;-5.74;100.00;102112.44;4839898;29;20076;-78
2022/12/19 01:29:04;;;;;;;46.63;20.13;;;;;;;-5.72;100.00;102095.41;4857312;29;20536;-79
2022/12/19 01:31:32;;;;;;;51.50;20.00;;;;;;;-5.73;100.00;102081.66;4860877;29;20049;-79
2022/12/19 01:33:59;;;;;;;43.13;20.20;;;;;;;-5.66;100.00;102073.56;4845876;29;20050;-78
2022/12/19 01:36:26;;;;;;;49.80;21.77;;;;;;;-5.65;100.00;102071.88;4845152;29;20110;-78
2022/12/19 01:38:56;;;;;;;44.53;20.23;;;;;;;-5.64;100.00;102042.78;4861186;29;20045;-80
2022/12/19 01:41:23;;;;;;;46.93;19.37;;;;;;;-5.90;100.00;102051.31;4861408;29;20050;-79
2022/12/19 01:43:57;;;;;;;50.40;20.17;;;;;;;-5.66;100.00;102041.78;4845856;29;20038;-79
2022/12/19 01:46:45;;;;;;;49.80;18.90;;;;;;;-5.74;100.00;102033.53;4846599;29;20042;-79
2022/12/19 01:49:23;;;;;;;51.23;22.13;;;;;;;-5.76;100.00;102027.41;4846087;29;20057;-79
2022/12/19 01:51:51;;;;;;;39.47;21.13;;;;;;;-5.86;100.00;102034.44;4825591;29;20049;-79
2022/12/19 01:54:25;;;;;;;44.83;20.83;;;;;;;-5.78;100.00;102015.25;4843924;29;20186;-80
2022/12/19 01:56:55;;;;;;;45.03;19.40;;;;;;;-5.84;100.00;101994.22;4857733;29;20591;-79
2022/12/19 01:59:27;;;;;;;48.40;19.43;;;;;;;-5.76;100.00;102008.50;4829746;29;20050;-79
2022/12/19 02:02:01;;;;;;;46.67;20.50;;;;;;;-5.76;100.00;101999.09;4846276;29;20056;-79
2022/12/19 02:04:28;;;;;;;42.53;19.35;;;;;;;-5.73;100.00;101994.16;4846745;29;20729;-79
2022/12/19 02:06:58;;;;;;;42.30;21.10;;;;;;;-5.72;100.00;101995.97;4861110;29;20046;-79
2022/12/19 02:09:33;;;;;;;40.00;19.23;;;;;;;-5.79;100.00;101996.34;4847101;29;20302;-80
2022/12/19 02:12:00;;;;;;;36.67;17.03;;;;;;;-5.70;100.00;101998.63;4861088;29;20058;-78
2022/12/19 02:14:27;;;;;;;49.30;21.70;;;;;;;-5.73;100.00;102011.28;4861646;29;20442;-80
2022/12/19 02:17:01;;;;;;;45.63;19.63;;;;;;;-5.84;100.00;102001.97;4845933;29;20034;-78
2022/12/19 02:20:05;;;;;;;46.95;20.20;;;;;;;-5.72;100.00;101995.03;4846105;29;20045;-79
2022/12/19 02:23:07;;;;;;;50.50;20.15;;;;;;;-5.84;100.00;101977.09;4836451;29;20054;-78
2022/12/19 02:25:47;;;;;;;41.23;18.80;;;;;;;-5.75;100.00;101982.88;4836305;29;20057;-80
2022/12/19 02:28:52;;;;;;;42.33;18.50;;;;;;;-5.76;100.00;101978.50;4844583;29;20058;-79
2022/12/19 02:31:43;;;;;;;46.25;18.23;;;;;;;-5.84;100.00;101978.78;4845856;29;20054;-79
2022/12/19 02:34:30;;;;;;;46.00;20.87;;;;;;;-5.81;100.00;101974.72;4845343;29;20077;-79
2022/12/19 02:37:13;;;;;;;41.30;18.37;;;;;;;-5.98;100.00;101975.31;4856761;29;20110;-79
2022/12/19 02:39:44;;;;;;;44.03;18.57;;;;;;;-5.88;100.00;101970.00;4859571;29;20050;-80
2022/12/19 02:42:15;;;;;;;48.87;19.83;;;;;;;-5.92;100.00;101969.72;4823086;29;20102;-79
2022/12/19 02:44:48;;;;;;;48.77;19.83;;;;;;;-5.92;100.00;101960.31;4827846;29;20034;-79
2022/12/19 02:47:15;;;;;;;41.50;18.97;;;;;;;-6.20;100.00;101947.28;4855650;29;20053;-79
2022/12/19 02:49:42;;;;;;;42.13;19.33;;;;;;;-6.00;100.00;101964.03;4841389;29;20045;-79
2022/12/19 02:52:31;;;;;;;51.33;19.10;;;;;;;-6.06;100.00;101961.94;4836706;29;20042;-79
2022/12/19 02:55:02;;;;;;;46.33;19.57;;;;;;;-6.07;100.00;101956.69;4857555;29;20110;-79
2022/12/19 02:57:37;;;;;;;48.57;20.30;;;;;;;-6.12;100.00;101955.53;4841651;29;20079;-79
2022/12/19 03:00:07;;;;;;;47.03;19.73;;;;;;;-6.07;100.00;101951.56;4842661;29;20071;-80
2022/12/19 03:02:52;;;;;;;42.20;18.70;;;;;;;-6.17;100.00;101955.19;4843348;29;20042;-79
2022/12/19 03:05:32;;;;;;;36.13;17.90;;;;;;;-6.22;100.00;101951.44;4843984;29;20085;-78
2022/12/19 03:08:40;;;;;;;45.00;20.20;;;;;;;-6.19;100.00;101943.03;4842951;29;20046;-78
2022/12/19 03:11:12;;;;;;;43.53;18.33;;;;;;;-6.30;100.00;101935.50;4852623;29;20201;-78
2022/12/19 03:13:58;;;;;;;46.20;20.37;;;;;;;-6.24;100.00;101930.75;4830504;29;20141;-79
2022/12/19 03:16:25;;;;;;;38.87;19.07;;;;;;;-6.18;100.00;101929.38;4826799;29;20314;-79
2022/12/19 03:18:52;;;;;;;45.13;19.73;;;;;;;-6.16;100.00;101933.81;4844781;29;20318;-79
2022/12/19 03:21:24;;;;;;;47.87;19.93;;;;;;;-6.17;100.00;101936.31;4845908;29;20050;-78
2022/12/19 03:23:53;;;;;;;47.53;18.10;;;;;;;-6.20;100.00;101933.53;4848786;29;20060;-78
2022/12/19 03:26:23;;;;;;;42.70;19.17;;;;;;;-6.24;100.00;101935.00;4845621;29;20461;-79
2022/12/19 03:29:13;;;;;;;46.33;19.90;;;;;;;-6.25;100.00;101941.81;4851340;29;20329;-79
2022/12/19 03:31:41;;;;;;;47.80;18.97;;;;;;;-6.26;100.00;101944.28;4850888;29;20049;-80
2022/12/19 03:34:30;;;;;;;46.43;19.93;;;;;;;-6.29;100.00;101932.13;4843937;29;20038;-79
2022/12/19 03:37:01;;;;;;;49.53;18.87;;;;;;;-6.30;100.00;101927.78;4859419;29;20303;-79
2022/12/19 03:39:28;;;;;;;51.87;20.50;;;;;;;-6.25;100.00;101931.53;4829107;29;20049;-80
2022/12/19 03:44:41;;;;;;;43.97;20.03;;;;;;;-6.39;100.00;101928.81;4847371;29;20294;-78
2022/12/19 03:47:49;;;;;;;41.67;20.40;;;;;;;-6.36;100.00;101935.06;4846028;29;20053;-78
2022/12/19 03:50:16;;;;;;;43.60;20.63;;;;;;;-6.43;100.00;101927.72;4861101;29;20287;-78
2022/12/19 03:52:52;;;;;;;44.53;18.90;;;;;;;-6.33;100.00;101924.09;4847433;29;20298;-78
2022/12/19 03:55:40;;;;;;;43.87;18.43;;;;;;;-6.44;100.00;101920.81;4848004;29;20045;-78
2022/12/19 03:58:09;;;;;;;45.93;19.33;;;;;;;-6.50;100.00;101927.19;4849867;29;20355;-78
2022/12/19 04:00:40;;;;;;;43.87;18.83;;;;;;;-6.45;100.00;101925.84;4860464;29;20505;-79
2022/12/19 04:03:07;;;;;;;47.00;18.67;;;;;;;-6.37;100.00;101923.00;4857401;29;20303;-79
2022/12/19 04:05:34;;;;;;;41.17;18.50;;;;;;;-6.42;100.00;101916.66;4841927;29;20294;-79
2022/12/19 04:08:04;;;;;;;45.40;19.77;;;;;;;-6.47;100.00;101914.53;4842161;29;20811;-79
2022/12/19 04:10:36;;;;;;;45.97;19.30;;;;;;;-6.43;100.00;101908.84;4838932;29;20356;-79
2022/12/19 04:13:12;;;;;;;39.10;18.23;;;;;;;-6.49;100.00;101905.84;4851960;29;20303;-79
2022/12/19 04:15:49;;;;;;;50.90;21.30;;;;;;;-6.28;100.00;101894.44;4850811;29;20049;-79
2022/12/19 04:18:17;;;;;;;40.67;19.63;;;;;;;-6.38;100.00;101884.34;4842161;29;20298;-79
2022/12/19 04:21:00;;;;;;;46.87;18.97;;;;;;;-6.46;100.00;101890.66;4842044;29;20390;-79
2022/12/19 04:23:43;;;;;;;50.50;20.33;;;;;;;-6.34;100.00;101892.34;4838416;29;20465;-79
2022/12/19 04:26:10;;;;;;;41.93;19.23;;;;;;;-6.45;100.00;101907.84;4856798;29;20294;-79
2022/12/19 04:28:43;;;;;;;49.30;19.83;;;;;;;-6.35;100.00;101917.97;4841880;29;20299;-80
2022/12/19 04:31:12;;;;;;;53.30;21.03;;;;;;;-6.30;100.00;101920.06;4857011;29;20174;-79
2022/12/19 04:33:39;;;;;;;45.80;19.33;;;;;;;-6.33;100.00;101917.25;4840273;29;20042;-79
2022/12/19 04:36:06;;;;;;;45.20;19.07;;;;;;;-6.31;100.00;101918.25;4843357;29;20299;-79
2022/12/19 04:38:33;;;;;;;41.37;19.30;;;;;;;-6.41;100.00;101917.53;4841361;29;20299;-79
2022/12/19 04:41:00;;;;;;;49.57;20.17;;;;;;;-6.45;100.00;101911.31;4856997;29;20283;-79
2022/12/19 04:43:26;;;;;;;40.33;17.50;;;;;;;-6.47;100.00;101900.03;4841534;29;20367;-79
2022/12/19 04:45:53;;;;;;;45.83;19.03;;;;;;;-6.30;100.00;101904.63;4840879;29;20523;-79
2022/12/19 04:48:23;;;;;;;42.77;18.87;;;;;;;-6.39;100.00;101904.03;4839080;29;20295;-78
2022/12/19 04:50:50;;;;;;;47.20;21.03;;;;;;;-6.40;100.00;101904.78;4823896;29;20504;-79
2022/12/19 04:53:17;;;;;;;40.43;18.13;;;;;;;-6.40;100.00;101891.03;4839501;29;20294;-79
2022/12/19 04:55:43;;;;;;;49.60;20.97;;;;;;;-6.26;100.00;101890.28;4840682;29;20382;-78
2022/12/19 04:58:10;;;;;;;40.60;19.57;;;;;;;-6.47;100.00;101887.19;4826576;29;20046;-78
2022/12/19 05:00:37;;;;;;;40.77;18.40;;;;;;;-6.38;100.00;101889.47;4841513;29;20325;-79
2022/12/19 05:03:04;;;;;;;40.47;19.00;;;;;;;-6.33;100.00;101883.84;4840984;29;20431;-79
2022/12/19 05:05:31;;;;;;;47.67;20.37;;;;;;;-6.35;100.00;101890.56;4837664;29;20654;-79
2022/12/19 05:07:57;;;;;;;43.40;18.43;;;;;;;-6.27;100.00;101885.94;4853388;29;20042;-79
2022/12/19 05:10:24;;;;;;;44.80;20.10;;;;;;;-6.34;100.00;101888.88;4852665;29;20383;-78
2022/12/19 05:12:52;;;;;;;46.33;18.60;;;;;;;-6.33;100.00;101893.22;4837427;29;20514;-79
2022/12/19 05:15:19;;;;;;;37.10;16.77;;;;;;;-6.34;100.00;101902.63;4840723;29;20038;-79
2022/12/19 05:17:46;;;;;;;39.77;18.07;;;;;;;-6.32;100.00;101888.19;4840682;29;20094;-79
2022/12/19 05:20:12;;;;;;;43.00;17.90;;;;;;;-6.44;100.00;101900.25;4856014;29;20299;-79
2022/12/19 05:22:39;;;;;;;41.17;16.50;;;;;;;-6.54;100.00;101879.84;4854737;29;20052;-79
2022/12/19 05:25:06;;;;;;;43.20;18.23;;;;;;;-6.40;100.00;101876.50;4841669;29;20121;-79
2022/12/19 05:27:33;;;;;;;43.03;17.47;;;;;;;-6.44;100.00;101868.50;4855712;29;20050;-79
2022/12/19 05:30:00;;;;;;;42.00;17.80;;;;;;;-6.53;100.00;101863.63;4840944;29;20057;-79
2022/12/19 05:32:32;;;;;;;39.87;17.37;;;;;;;-6.43;100.00;101866.03;4840664;29;20066;-79
2022/12/19 05:34:59;;;;;;;36.43;17.33;;;;;;;-6.36;100.00;101865.66;4837033;29;20042;-79
2022/12/19 05:37:25;;;;;;;45.70;18.07;;;;;;;-6.32;100.00;101848.72;4847469;29;20724;-79
2022/12/19 05:39:52;;;;;;;45.57;18.90;;;;;;;-6.37;100.00;101834.69;4843754;29;20053;-80
2022/12/19 05:42:19;;;;;;;42.93;17.77;;;;;;;-6.32;100.00;101841.91;4831698;29;20050;-79
2022/12/19 05:44:45;;;;;;;40.37;19.40;;;;;;;-6.31;100.00;101835.97;4836809;29;20043;-79
2022/12/19 05:47:12;;;;;;;43.90;17.33;;;;;;;-6.36;100.00;101834.78;4820377;29;20298;-79
2022/12/19 05:49:39;;;;;;;35.43;16.50;;;;;;;-6.30;100.00;101832.63;4840559;29;20098;-79
2022/12/19 05:52:05;;;;;;;41.27;17.93;;;;;;;-6.30;100.00;101824.03;4840959;29;20404;-79
2022/12/19 05:54:32;;;;;;;44.10;19.10;;;;;;;-6.26;100.00;101818.28;4841804;29;20306;-79
2022/12/19 05:56:59;;;;;;;37.33;17.17;;;;;;;-6.16;100.00;101823.22;4837103;29;20296;-79
2022/12/19 05:59:26;;;;;;;41.60;17.70;;;;;;;-6.08;100.00;101827.19;4855510;29;20299;-79
2022/12/19 06:01:54;;;;;;;39.50;17.07;;;;;;;-6.15;100.00;101822.44;4835419;29;20499;-78
2022/12/19 06:04:20;;;;;;;36.17;16.03;;;;;;;-6.11;100.00;101824.44;4836806;29;20053;-79
2022/12/19 06:06:47;;;;;;;40.07;17.73;;;;;;;-6.08;100.00;101819.47;4842758;29;20882;-78
2022/12/19 06:09:14;;;;;;;36.37;16.27;;;;;;;-6.01;100.00;101823.34;4858208;29;20045;-80
2022/12/19 06:11:40;;;;;;;46.47;18.77;;;;;;;-5.88;100.00;101825.88;4856582;29;20042;-79
2022/12/19 06:14:07;;;;;;;37.03;17.17;;;;;;;-5.72;100.00;101820.94;4855116;29;20444;-79
2022/12/19 06:16:34;;;;;;;42.87;19.87;;;;;;;-5.72;100.00;101820.94;4839054;29;20536;-79
2022/12/19 06:19:01;;;;;;;37.73;18.43;;;;;;;-5.80;100.00;101816.97;4852048;29;20070;-80
2022/12/19 06:21:27;;;;;;;35.67;16.43;;;;;;;-5.58;100.00;101806.31;4851684;29;20069;-79
2022/12/19 06:23:54;;;;;;;35.53;16.07;;;;;;;-5.62;100.00;101801.81;4838680;29;20058;-79
2022/12/19 06:26:21;;;;;;;40.83;16.67;;;;;;;-5.55;100.00;101800.47;4837654;29;20048;-80
2022/12/19 06:28:49;;;;;;;36.87;15.37;;;;;;;-5.44;100.00;101791.75;4837005;29;20050;-79
2022/12/19 06:31:16;;;;;;;43.33;17.83;;;;;;;-5.41;100.00;101779.94;4842937;29;20086;-79
2022/12/19 06:33:43;;;;;;;37.67;17.63;;;;;;;-5.35;100.00;101787.16;4837046;29;20042;-79
2022/12/19 06:36:15;;;;;;;36.43;17.00;;;;;;;-5.38;100.00;101780.16;4850281;29;20068;-80
2022/12/19 06:38:42;;;;;;;36.30;17.00;;;;;;;-5.38;100.00;101771.53;4834850;29;20058;-79
2022/12/19 06:44:04;;;;;;;38.43;17.13;;;;;;;-5.31;100.00;101786.53;4838658;29;20066;-79
2022/12/19 06:46:31;;;;;;;45.47;15.47;;;;;;;-5.32;100.00;101782.19;4834936;29;20046;-80
2022/12/19 06:48:58;;;;;;;33.70;15.97;;;;;;;-5.29;100.00;101792.69;4837211;29;20117;-80
2022/12/19 06:51:25;;;;;;;41.27;16.60;;;;;;;-5.28;100.00;101785.84;4836913;29;20058;-79
2022/12/19 06:53:52;;;;;;;40.07;16.60;;;;;;;-5.34;100.00;101778.63;4845246;29;20427;-80
2022/12/19 06:56:19;;;;;;;41.80;17.67;;;;;;;-5.27;100.00;101782.47;4832280;29;20049;-80
2022/12/19 06:58:46;;;;;;;38.33;17.93;;;;;;;-5.11;100.00;101778.34;4837969;29;20073;-80
2022/12/19 07:01:20;;;;;;;38.40;16.13;;;;;;;-5.09;100.00;101773.28;4836990;29;20076;-79
2022/12/19 07:03:47;;;;;;;38.33;16.77;;;;;;;-5.29;100.00;101774.66;4837189;29;20049;-80
2022/12/19 07:06:14;;;;;;;42.67;17.33;;;;;;;-5.21;100.00;101777.72;4835920;29;20046;-80
2022/12/19 07:08:41;;;;;;;36.67;16.23;;;;;;;-5.10;100.00;101769.81;4837013;29;20057;-79
2022/12/19 07:11:09;;;;;;;43.60;17.47;;;;;;;-4.98;100.00;101773.91;4830461;29;20122;-79
2022/12/19 07:13:35;;;;;;;38.50;16.83;;;;;;;-4.96;100.00;101783.53;4837084;29;20092;-79
2022/12/19 07:16:04;;;;;;;36.97;17.27;;;;;;;-4.96;100.00;101772.31;4836779;29;20077;-79
2022/12/19 07:18:35;;;;;;;41.47;17.97;;;;;;;-4.88;100.00;101771.97;4836678;29;20081;-80
2022/12/19 07:21:02;;;;;;;43.93;17.93;;;;;;;-4.91;100.00;101763.19;4851443;29;20407;-80
2022/12/19 07:23:29;;;;;;;33.37;15.73;;;;;;;-4.79;100.00;101761.34;4836826;29;20061;-80
2022/12/19 07:25:56;;;;;;;37.90;15.33;;;;;;;-4.75;100.00;101755.56;4839748;29;20507;-80
2022/12/19 07:28:23;;;;;;;36.00;17.07;;;;;;;-4.79;100.00;101763.00;4852590;29;20046;-79
2022/12/19 07:30:50;;;;;;;35.37;17.43;;;;;;;-4.80;100.00;101762.13;4837173;29;20053;-80
2022/12/19 07:33:17;;;;;;;41.90;17.83;;;;;;;-4.71;100.00;101769.50;4836857;29;20046;-79
2022/12/19 07:35:47;;;;;;;38.67;17.63;;;;;;;-4.67;100.00;101762.06;4836830;29;20105;-79
2022/12/19 07:38:14;;;;;;;38.93;16.83;;;;;;;-4.63;100.00;101764.00;4852477;29;20046;-80
2022/12/19 07:40:40;;;;;;;35.90;16.60;;;;;;;-4.66;100.00;101771.56;4836926;29;20050;-79
2022/12/19 07:43:07;;;;;;;39.13;16.83;;;;;;;-4.66;100.00;101753.50;4867555;29;20077;-80
2022/12/19 07:45:36;;;;;;;35.83;14.97;;;;;;;-4.57;100.00;101748.88;4836598;29;20078;-80
2022/12/19 07:48:04;;;;;;;38.13;16.30;;;;;;;-4.56;100.00;101745.50;4867105;29;20102;-80
2022/12/19 07:50:31;;;;;;;33.60;17.17;;;;;;;-4.45;100.00;101753.00;4851477;29;20066;-79
2022/12/19 07:52:58;;;;;;;35.63;16.43;;;;;;;-4.43;100.00;101753.97;4836295;29;20050;-80
2022/12/19 07:55:25;;;;;;;35.30;16.67;;;;;;;-4.43;100.00;101753.97;4837085;29;20061;-80
2022/12/19 07:57:52;;;;;;;33.20;14.93;;;;;;;-4.33;100.00;101756.25;4847641;29;20492;-79
2022/12/19 08:00:20;;;;;;;34.73;15.30;;;;;;;-4.34;100.00;101754.47;4851256;29;20048;-80
2022/12/19 08:02:47;;;;;;;40.17;16.90;;;;;;;-4.33;100.00;101744.25;4851031;29;20056;-80
2022/12/19 08:05:13;;;;;;;39.77;16.37;;;;;;;-4.29;100.00;101741.06;4836725;29;20133;-79
2022/12/19 08:07:40;;;;;;;39.70;15.87;;;;;;;-4.33;100.00;101733.94;4836378;29;20189;-79
2022/12/19 08:10:07;;;;;;;38.83;15.73;;;;;;;-4.19;100.00;101728.66;4836426;29;20056;-79
2022/12/19 08:12:34;;;;;;;35.47;16.03;;;;;;;-4.12;100.00;101728.19;4835208;29;20492;-80
2022/12/19 08:15:09;;;;;;;32.33;15.10;;;;;;;-4.01;100.00;101724.53;4852536;29;20042;-80
2022/12/19 08:17:39;;;;;;;30.73;15.37;;;;;;;-4.06;100.00;101716.50;4849264;29;20111;-79
2022/12/19 08:20:08;;;;;;;37.53;15.30;;;;;;;-3.93;100.00;101710.34;4835997;29;20133;-80
2022/12/19 08:22:35;;;;;;;33.73;13.97;;;;;;;-3.95;100.00;101691.31;4835480;29;20058;-80
2022/12/19 08:25:02;;;;;;;32.13;15.17;;;;;;;-3.90;100.00;101699.28;4833189;29;20050;-80
2022/12/19 08:27:29;;;;;;;31.17;14.93;;;;;;;-3.96;100.00;101685.22;4845699;29;20050;-79
2022/12/19 08:29:55;;;;;;;34.17;15.00;;;;;;;-3.97;100.00;101678.28;4835023;29;20058;-80
2022/12/19 08:32:22;;;;;;;35.93;15.93;;;;;;;-3.87;100.00;101674.50;4850147;29;20138;-80
2022/12/19 08:34:49;;;;;;;33.43;16.13;;;;;;;-3.79;100.00;101664.59;4849334;29;20046;-80
2022/12/19 08:37:16;;;;;;;34.67;15.00;;;;;;;-3.71;100.00;101673.63;4819942;29;20535;-80
2022/12/19 08:39:45;;;;;;;32.23;14.47;;;;;;;-3.62;100.00;101671.53;4834635;29;20045;-80
2022/12/19 08:42:12;;;;;;;41.30;16.70;;;;;;;-3.57;100.00;101670.09;4851568;29;20060;-80
2022/12/19 08:44:39;;;;;;;39.40;16.97;;;;;;;-3.53;100.00;101687.56;4835170;29;20048;-80
2022/12/19 08:47:05;;;;;;;33.83;15.23;;;;;;;-3.45;100.00;101690.50;4853630;29;20034;-80
2022/12/19 08:49:32;;;;;;;33.90;14.87;;;;;;;-3.52;100.00;101686.75;4854207;29;20054;-80
2022/12/19 08:51:59;;;;;;;29.07;13.27;;;;;;;-3.47;100.00;101689.53;4839597;29;20062;-79
2022/12/19 08:54:26;;;;;;;31.87;14.47;;;;;;;-3.42;100.00;101683.81;4848222;29;20080;-79
2022/12/19 08:56:52;;;;;;;32.90;14.33;;;;;;;-3.48;100.00;101678.31;4838885;29;20132;-80
2022/12/19 08:59:19;;;;;;;30.53;13.70;;;;;;;-3.47;100.00;101680.09;4824476;29;20049;-81
2022/12/19 09:01:58;;;;;;;30.40;13.57;;;;;;;-3.36;100.00;101674.59;4825563;29;20054;-80
2022/12/19 09:04:25;;;;;;;33.23;14.93;;;;;;;-3.28;100.00;101674.22;4824455;29;20060;-80
2022/12/19 09:07:12;;;;;;;31.07;15.60;;;;;;;-3.22;100.00;101663.28;4852010;29;20104;-80
2022/12/19 09:09:42;;;;;;;32.13;14.87;;;;;;;-3.22;100.00;101664.16;4854727;29;20042;-80
2022/12/19 09:12:08;;;;;;;35.70;15.00;;;;;;;-3.10;100.00;101651.00;4863218;29;20061;-80
2022/12/19 09:14:35;;;;;;;30.07;14.60;;;;;;;-3.11;100.00;101651.81;4846095;29;20057;-80
2022/12/19 09:17:02;;;;;;;29.80;15.33;;;;;;;-3.02;100.00;101651.38;4839050;29;20049;-80
2022/12/19 09:19:30;;;;;;;30.67;14.83;;;;;;;-3.00;100.00;101654.94;4839216;29;20046;-80
2022/12/19 09:21:56;;;;;;;34.40;16.23;;;;;;;-2.96;100.00;101642.22;4823997;29;20057;-80
2022/12/19 09:24:23;;;;;;;30.90;15.60;;;;;;;-2.88;100.00;101629.66;4833445;29;20046;-81
2022/12/19 09:26:50;;;;;;;30.60;13.60;;;;;;;-2.80;100.00;101624.88;4824167;29;20046;-79
2022/12/19 09:29:16;;;;;;;31.13;13.63;;;;;;;-2.78;100.00;101613.78;4835174;29;20400;-80
2022/12/19 09:31:47;;;;;;;35.57;15.83;;;;;;;-2.80;100.00;101610.25;4818324;29;20053;-80
2022/12/19 09:34:24;;;;;;;32.07;15.53;;;;;;;-2.64;100.00;101596.34;4833974;29;20145;-80
2022/12/19 09:37:09;;;;;;;35.07;16.67;;;;;;;-2.59;100.00;101595.78;4853011;29;20137;-79
2022/12/19 09:39:44;;;;;;;32.83;16.63;;;;;;;-2.58;100.00;101594.06;4838554;29;20077;-81
2022/12/19 09:42:40;;;;;;;34.80;16.77;;;;;;;-2.55;100.00;101589.03;4839174;29;20077;-81
2022/12/19 09:45:19;;;;;;;32.50;15.17;;;;;;;-2.50;100.00;101591.84;4854322;29;20042;-80
2022/12/19 09:47:58;;;;;;;29.63;15.53;;;;;;;-2.56;100.00;101577.78;4840722;29;20045;-80
2022/12/19 09:50:31;;;;;;;31.47;13.67;;;;;;;-2.63;100.00;101582.59;4857500;29;20416;-81
2022/12/19 09:53:25;;;;;;;29.97;14.03;;;;;;;-2.57;100.00;101568.25;4856945;29;20046;-80
2022/12/19 09:55:52;;;;;;;33.07;14.23;;;;;;;-2.52;100.00;101565.91;4835078;29;20111;-81
2022/12/19 09:58:29;;;;;;;30.47;14.50;;;;;;;-2.42;100.00;101538.75;4846996;29;20062;-80
2022/12/19 10:00:58;;;;;;;33.60;15.20;;;;;;;-2.45;100.00;101543.75;4835490;29;20070;-80
2022/12/19 10:03:44;;;;;;;25.90;13.60;;;;;;;-2.36;100.00;101531.25;4849138;29;20136;-80
2022/12/19 10:06:17;;;;;;;29.03;12.83;;;;;;;-2.33;100.00;101527.13;4835424;29;20046;-80
2022/12/19 10:09:11;;;;;;;29.97;14.13;;;;;;;-2.26;100.00;101510.16;4836489;29;20046;-80
2022/12/19 10:12:26;;;;;;;29.07;13.20;;;;;;;-2.21;100.00;101529.34;4838352;29;20151;-80
2022/12/19 10:15:20;;;;;;;30.40;13.15;;;;;;;-2.14;100.00;101521.06;4838729;29;20050;-80
2022/12/19 10:18:05;;;;;;;29.10;12.80;;;;;;;-2.12;100.00;101518.53;4822440;29;20050;-80
2022/12/19 10:20:37;;;;;;;28.60;12.80;;;;;;;-2.01;100.00;101507.84;4835540;29;20050;-81
2022/12/19 10:23:36;;;;;;;36.77;15.33;;;;;;;-1.95;100.00;101506.31;4838146;29;20042;-80
2022/12/19 10:26:43;;;;;;;26.60;13.63;;;;;;;-1.80;100.00;101505.28;4820685;29;20046;-81
2022/12/19 10:29:35;;;;;;;30.83;13.80;;;;;;;-1.72;100.00;101503.03;4812255;29;20148;-81
2022/12/19 10:32:10;;;;;;;30.33;13.83;;;;;;;-1.69;100.00;101490.19;4836877;29;20041;-80
2022/12/19 10:34:40;;;;;;;30.10;13.27;;;;;;;-1.63;100.00;101485.28;4835502;29;20497;-81
2022/12/19 10:37:24;;;;;;;25.40;12.33;;;;;;;-1.49;100.00;101484.16;4835710;29;20768;-81
2022/12/19 10:40:20;;;;;;;29.33;12.33;;;;;;;-1.36;100.00;101488.13;4837876;29;20182;-80
2022/12/19 10:43:21;;;;;;;25.63;13.73;;;;;;;-1.32;100.00;101478.78;4833719;29;20043;-80
2022/12/19 10:46:05;;;;;;;25.53;12.20;;;;;;;-1.21;100.00;101472.31;4861517;29;20048;-80
2022/12/19 10:48:31;;;;;;;28.87;13.50;;;;;;;-1.16;100.00;101474.25;4834266;29;20145;-80
2022/12/19 10:50:58;;;;;;;26.57;13.57;;;;;;;-1.07;100.00;101480.66;4836352;29;20042;-81
2022/12/19 10:53:32;;;;;;;30.15;14.02;;;;;;;-0.99;100.00;101480.13;4835201;29;20045;-81
2022/12/19 10:56:01;;;;;;;31.17;14.57;;;;;;;-0.96;100.00;101466.38;4844501;29;20097;-81
2022/12/19 10:58:33;;;;;;;29.63;13.37;;;;;;;-0.98;100.00;101470.63;4822906;29;20060;-81
2022/12/19 11:01:24;;;;;;;25.80;12.97;;;;;;;-0.97;100.00;101467.22;4822428;29;20038;-81
2022/12/19 11:04:12;;;;;;;24.90;12.10;;;;;;;-0.92;100.00;101463.09;4837768;29;20110;-81
2022/12/19 11:06:45;;;;;;;25.47;13.27;;;;;;;-1.01;100.00;101462.72;4845179;29;20094;-81
2022/12/19 11:09:26;;;;;;;29.00;14.00;;;;;;;-0.96;100.00;101454.28;4837245;29;20220;-81
2022/12/19 11:12:25;;;;;;;29.70;15.33;;;;;;;-0.82;100.00;101448.75;4837593;29;20046;-80
2022/12/19 11:15:14;;;;;;;26.77;13.83;;;;;;;-0.86;100.00;101452.94;4837966;29;20113;-81
2022/12/19 11:18:08;;;;;;;31.40;13.80;;;;;;;-0.87;100.00;101440.78;4836669;29;20038;-81
2022/12/19 11:21:04;;;;;;;28.98;13.63;;;;;;;-0.87;100.00;101435.59;4834892;29;20072;-80
2022/12/19 11:23:53;;;;;;;29.63;13.33;;;;;;;-0.88;100.00;101426.94;4849414;29;20079;-81
2022/12/19 11:26:43;;;;;;;27.53;12.70;;;;;;;-0.77;100.00;101416.06;4852123;29;20078;-80
2022/12/19 11:29:42;;;;;;;25.43;13.37;;;;;;;-0.75;100.00;101407.53;4837031;29;20189;-80
2022/12/19 11:32:35;;;;;;;29.67;13.50;;;;;;;-0.69;100.00;101399.09;4834336;29;20042;-81
2022/12/19 11:35:13;;;;;;;30.23;11.83;;;;;;;-0.70;100.00;101393.00;4837032;29;20493;-80